Time;durP1;ratioP1;P1;durP2;ratioP2;P2;SDS_P1;SDS_P2;PMS_P1;PMS_P2;Temp;Humidity;BMP_temperature;BMP_pressure;BME280_temperature;BME280_humidity;BME280_pressure;Samples;Min_cycle;Max_cycle;Signal;HPM_P1;HPM_P2
2023/05/01 00:00:53;;;;;;;6.00;5.60;;;7.90;99.90;;;;;;5050975;28;20502;-78
2023/05/01 00:03:20;;;;;;;8.30;6.03;;;7.80;99.90;;;;;;5061591;28;20514;-78
2023/05/01 00:05:48;;;;;;;7.33;5.60;;;7.70;99.90;;;;;;5055513;28;20561;-78
2023/05/01 00:08:15;;;;;;;6.23;5.60;;;7.70;99.90;;;;;;5066731;28;20950;-79
2023/05/01 00:10:42;;;;;;;5.40;4.90;;;7.60;99.90;;;;;;5059830;28;20444;-80
2023/05/01 00:13:10;;;;;;;6.30;5.80;;;7.60;99.90;;;;;;5064317;28;20429;-78
2023/05/01 00:15:40;;;;;;;6.17;5.57;;;7.60;99.90;;;;;;5070884;28;21001;-78
2023/05/01 00:18:07;;;;;;;5.87;5.27;;;7.60;99.90;;;;;;5073001;28;20480;-80
2023/05/01 00:20:34;;;;;;;6.67;6.07;;;7.60;99.90;;;;;;5078783;28;20436;-77
2023/05/01 00:23:03;;;;;;;8.77;6.03;;;7.60;99.90;;;;;;5076273;28;20444;-78
2023/05/01 00:25:31;;;;;;;7.50;6.27;;;7.60;99.90;;;;;;5066110;28;20457;-77
2023/05/01 00:27:58;;;;;;;6.00;4.83;;;7.70;99.90;;;;;;5065912;28;20468;-78
2023/05/01 00:30:26;;;;;;;6.23;5.60;;;7.60;99.90;;;;;;5069202;28;21009;-80
2023/05/01 00:32:53;;;;;;;6.20;5.70;;;7.60;99.90;;;;;;5069198;28;20836;-79
2023/05/01 00:35:20;;;;;;;6.70;6.10;;;7.70;99.90;;;;;;5060951;28;20569;-77
2023/05/01 00:37:47;;;;;;;6.87;6.37;;;7.70;99.90;;;;;;5060751;28;20477;-78
2023/05/01 00:40:16;;;;;;;6.57;5.80;;;7.80;99.90;;;;;;5057713;28;20471;-78
2023/05/01 00:42:43;;;;;;;6.60;5.90;;;7.70;99.90;;;;;;5062160;28;20501;-78
2023/05/01 00:45:10;;;;;;;6.13;5.60;;;7.70;99.90;;;;;;5067665;28;20505;-79
2023/05/01 00:47:40;;;;;;;5.83;4.90;;;7.70;99.90;;;;;;5065142;28;20586;-78
2023/05/01 00:50:08;;;;;;;6.53;5.90;;;7.70;99.90;;;;;;5066427;28;20487;-78
2023/05/01 00:52:35;;;;;;;5.17;4.67;;;7.70;99.90;;;;;;5066006;28;20937;-80
2023/05/01 00:55:04;;;;;;;6.53;5.23;;;7.70;99.90;;;;;;5069027;28;20451;-77
2023/05/01 00:57:33;;;;;;;6.40;5.90;;;7.60;99.90;;;;;;5062429;28;20484;-78
2023/05/01 01:00:00;;;;;;;6.37;5.77;;;7.60;99.90;;;;;;5061282;28;20498;-77
2023/05/01 01:02:27;;;;;;;4.83;4.33;;;7.70;99.90;;;;;;5066897;28;20544;-78
2023/05/01 01:04:54;;;;;;;6.47;5.20;;;7.70;99.90;;;;;;5067311;28;20445;-78
2023/05/01 01:07:33;;;;;;;4.83;3.97;;;7.80;99.90;;;;;;5056204;28;20456;-78
2023/05/01 01:10:17;;;;;;;5.80;5.30;;;7.80;99.90;;;;;;5055154;28;20915;-77
2023/05/01 01:12:52;;;;;;;5.00;4.50;;;7.80;99.90;;;;;;5060463;28;21240;-78
2023/05/01 01:15:28;;;;;;;6.00;5.37;;;7.70;99.90;;;;;;5064363;28;20523;-78
2023/05/01 01:18:07;;;;;;;4.30;3.97;;;7.70;99.90;;;;;;5058685;28;20533;-80
2023/05/01 01:20:39;;;;;;;6.07;5.13;;;7.70;99.90;;;;;;5062482;28;20474;-79
2023/05/01 01:23:40;;;;;;;6.20;4.20;;;7.70;99.90;;;;;;5062038;28;20471;-81
2023/05/01 01:26:27;;;;;;;6.47;5.73;;;7.70;99.90;;;;;;5035569;28;20522;-79
2023/05/01 01:29:22;;;;;;;7.13;5.30;;;7.60;99.90;;;;;;5058014;28;20559;-78
2023/05/01 01:32:00;;;;;;;4.97;4.33;;;7.60;99.90;;;;;;5053406;28;20479;-78
2023/05/01 01:34:34;;;;;;;13.27;5.47;;;7.70;99.90;;;;;;5057393;28;20448;-78
2023/05/01 01:37:04;;;;;;;6.03;4.97;;;7.70;99.90;;;;;;5055585;28;20507;-80
2023/05/01 01:39:41;;;;;;;7.20;6.00;;;7.70;99.90;;;;;;5065291;28;21191;-77
2023/05/01 01:42:13;;;;;;;6.00;5.10;;;7.60;99.90;;;;;;5061337;28;20561;-78
2023/05/01 01:44:43;;;;;;;5.03;4.60;;;7.60;99.90;;;;;;5060890;28;20510;-80
2023/05/01 01:47:12;;;;;;;4.67;4.27;;;7.50;99.90;;;;;;5058468;28;20445;-78
2023/05/01 01:49:45;;;;;;;6.80;5.43;;;7.60;99.90;;;;;;5066730;28;20534;-79
2023/05/01 01:52:15;;;;;;;7.03;4.43;;;7.60;99.90;;;;;;5060808;28;20464;-78
2023/05/01 01:54:47;;;;;;;5.53;4.90;;;7.60;99.90;;;;;;5053520;28;20527;-79
2023/05/01 01:57:18;;;;;;;6.43;5.60;;;7.60;99.90;;;;;;5064679;28;20863;-78
2023/05/01 01:59:47;;;;;;;6.33;5.03;;;7.60;99.90;;;;;;5059600;28;20445;-78
2023/05/01 02:02:17;;;;;;;4.87;4.37;;;7.60;99.90;;;;;;5053249;28;21241;-77
2023/05/01 02:04:47;;;;;;;5.43;4.30;;;7.50;99.90;;;;;;5059779;28;20445;-78
2023/05/01 02:07:16;;;;;;;11.40;5.70;;;7.50;99.90;;;;;;5061209;28;20460;-80
2023/05/01 02:09:45;;;;;;;5.87;5.30;;;7.40;99.90;;;;;;5052893;28;20453;-80
2023/05/01 02:12:14;;;;;;;6.23;5.30;;;7.40;99.90;;;;;;5059169;28;20456;-78
2023/05/01 02:14:42;;;;;;;4.33;4.00;;;7.30;99.90;;;;;;5058332;28;20444;-78
2023/05/01 02:17:10;;;;;;;7.00;5.37;;;7.30;99.90;;;;;;5055110;28;20441;-81
2023/05/01 02:19:39;;;;;;;6.63;4.57;;;7.30;99.90;;;;;;5061750;28;20444;-78
2023/05/01 02:22:10;;;;;;;7.17;5.00;;;7.30;99.90;;;;;;5063135;28;20447;-77
2023/05/01 02:24:38;;;;;;;5.37;4.47;;;7.30;99.90;;;;;;5059188;28;20475;-78
2023/05/01 02:27:11;;;;;;;5.30;4.77;;;7.20;99.90;;;;;;5050511;28;20887;-78
2023/05/01 02:29:38;;;;;;;4.00;3.70;;;7.20;99.90;;;;;;5060813;28;20869;-78
2023/05/01 02:32:05;;;;;;;5.07;4.33;;;7.20;99.90;;;;;;5051620;28;20531;-81
2023/05/01 02:34:34;;;;;;;7.97;5.40;;;7.10;99.90;;;;;;5065147;28;20506;-78
2023/05/01 02:37:02;;;;;;;6.37;5.20;;;7.10;99.90;;;;;;5059459;28;20483;-80
2023/05/01 02:39:30;;;;;;;4.93;4.43;;;7.10;99.90;;;;;;5060923;28;20990;-80
2023/05/01 02:41:58;;;;;;;5.73;5.23;;;7.10;99.90;;;;;;5058972;28;21073;-78
2023/05/01 02:44:27;;;;;;;4.90;4.43;;;7.10;99.90;;;;;;5065083;28;20428;-78
2023/05/01 02:46:57;;;;;;;10.53;5.30;;;7.10;99.90;;;;;;5056138;28;20459;-79
2023/05/01 02:49:24;;;;;;;3.47;3.17;;;7.00;99.90;;;;;;5065323;28;20868;-78
2023/05/01 02:51:51;;;;;;;6.80;5.53;;;7.00;99.90;;;;;;5058992;28;20517;-79
2023/05/01 02:54:18;;;;;;;5.97;4.87;;;7.00;99.90;;;;;;5066944;28;20500;-77
2023/05/01 02:56:46;;;;;;;5.50;4.00;;;6.90;99.90;;;;;;5065487;28;20460;-80
2023/05/01 02:59:14;;;;;;;5.80;4.30;;;6.90;99.90;;;;;;5066047;28;20542;-78
2023/05/01 03:01:41;;;;;;;5.33;4.63;;;6.90;99.90;;;;;;5066537;28;20509;-78
2023/05/01 03:04:08;;;;;;;6.30;5.00;;;6.90;99.90;;;;;;5064851;28;20456;-78
2023/05/01 03:06:35;;;;;;;6.10;4.90;;;6.80;99.90;;;;;;5064959;28;20448;-80
2023/05/01 03:09:02;;;;;;;6.63;5.90;;;6.80;99.90;;;;;;5065516;28;21007;-78
2023/05/01 03:11:29;;;;;;;6.57;5.00;;;6.80;99.90;;;;;;5066748;28;20437;-78
2023/05/01 03:13:57;;;;;;;6.07;5.50;;;6.80;99.90;;;;;;5048863;28;20469;-78
2023/05/01 03:16:24;;;;;;;9.27;5.00;;;6.80;99.90;;;;;;5050682;28;20494;-78
2023/05/01 03:18:51;;;;;;;10.70;5.27;;;6.80;99.90;;;;;;5052439;28;20542;-78
2023/05/01 03:21:18;;;;;;;5.83;5.30;;;6.70;99.90;;;;;;5053246;28;21112;-78
2023/05/01 03:23:45;;;;;;;6.60;5.03;;;6.70;99.90;;;;;;5058968;28;20477;-78
2023/05/01 03:26:12;;;;;;;6.90;4.03;;;6.70;99.90;;;;;;5063184;28;21002;-77
2023/05/01 03:28:39;;;;;;;5.37;4.43;;;6.60;99.90;;;;;;5058321;28;20944;-78
2023/05/01 03:31:08;;;;;;;6.67;4.97;;;6.70;99.90;;;;;;5063449;28;20498;-77
2023/05/01 03:33:34;;;;;;;4.97;4.57;;;6.70;99.90;;;;;;5065071;28;20456;-79
2023/05/01 03:36:02;;;;;;;5.07;4.57;;;6.70;99.90;;;;;;5068883;28;20786;-77
2023/05/01 03:38:30;;;;;;;4.07;3.57;;;6.70;99.90;;;;;;5074711;28;20485;-81
2023/05/01 03:40:57;;;;;;;4.70;4.07;;;6.70;99.90;;;;;;5068189;28;20531;-78
2023/05/01 03:43:25;;;;;;;3.97;3.60;;;6.80;99.90;;;;;;5064369;28;20469;-78
2023/05/01 03:45:52;;;;;;;4.83;4.00;;;6.80;99.90;;;;;;5061750;28;20501;-78
2023/05/01 03:48:21;;;;;;;4.63;3.93;;;6.70;99.90;;;;;;5061190;28;21056;-78
2023/05/01 03:50:48;;;;;;;5.20;4.13;;;6.70;99.90;;;;;;5065557;28;20425;-78
2023/05/01 03:53:15;;;;;;;6.37;5.23;;;6.70;99.90;;;;;;5057568;28;20440;-78
2023/05/01 03:55:42;;;;;;;4.40;3.17;;;6.80;99.90;;;;;;5065119;28;20447;-78
2023/05/01 03:58:09;;;;;;;6.23;3.67;;;6.70;99.90;;;;;;5055721;28;20962;-78
2023/05/01 04:00:37;;;;;;;5.73;3.73;;;6.70;99.90;;;;;;5062319;28;20531;-78
2023/05/01 04:03:04;;;;;;;5.20;4.17;;;6.70;99.90;;;;;;5061156;28;20464;-80
2023/05/01 04:05:32;;;;;;;4.27;3.80;;;6.70;99.90;;;;;;5057151;28;20437;-78
2023/05/01 04:07:59;;;;;;;6.43;4.67;;;6.80;99.90;;;;;;5054405;28;20491;-78
2023/05/01 04:10:26;;;;;;;5.03;4.53;;;6.80;99.90;;;;;;5050020;28;20497;-80
2023/05/01 04:12:53;;;;;;;4.80;3.93;;;6.80;99.90;;;;;;5058200;28;20468;-80
2023/05/01 04:15:21;;;;;;;3.53;3.33;;;6.90;99.90;;;;;;5054166;28;20449;-78
2023/05/01 04:17:48;;;;;;;4.87;3.73;;;6.90;99.90;;;;;;5052309;28;20535;-79
2023/05/01 04:20:15;;;;;;;4.90;4.20;;;6.90;99.90;;;;;;5053322;28;20523;-79
2023/05/01 04:22:44;;;;;;;8.40;3.97;;;7.00;99.90;;;;;;5058911;28;20462;-79
2023/05/01 04:25:11;;;;;;;4.93;3.37;;;7.00;99.90;;;;;;5059581;28;21006;-78
2023/05/01 04:27:38;;;;;;;10.10;3.87;;;7.00;99.90;;;;;;5064796;28;20517;-79
2023/05/01 04:30:06;;;;;;;6.20;3.87;;;7.00;99.90;;;;;;5058435;28;20463;-80
2023/05/01 04:32:33;;;;;;;3.80;3.50;;;7.00;99.90;;;;;;5061011;28;20830;-77
2023/05/01 04:35:00;;;;;;;3.60;3.30;;;7.10;99.90;;;;;;5061826;28;20456;-79
2023/05/01 04:37:27;;;;;;;6.20;4.00;;;7.10;99.90;;;;;;5060511;28;20538;-79
2023/05/01 04:39:55;;;;;;;4.40;4.00;;;7.10;99.90;;;;;;5065420;28;21009;-78
2023/05/01 04:42:22;;;;;;;6.83;3.87;;;7.10;99.90;;;;;;5063286;28;21132;-81
2023/05/01 04:44:49;;;;;;;5.07;4.17;;;7.20;99.90;;;;;;5066030;28;20493;-79
2023/05/01 04:47:16;;;;;;;4.90;4.40;;;7.20;99.90;;;;;;5060230;28;20456;-79
2023/05/01 04:49:43;;;;;;;3.87;3.57;;;7.20;99.90;;;;;;5064609;28;20934;-78
2023/05/01 04:52:11;;;;;;;5.37;3.63;;;7.20;99.90;;;;;;5055640;28;20456;-78
2023/05/01 04:54:38;;;;;;;2.50;2.30;;;7.30;99.90;;;;;;5047555;28;20919;-79
2023/05/01 04:57:06;;;;;;;3.60;3.30;;;7.30;99.90;;;;;;5060514;28;20509;-80
2023/05/01 04:59:33;;;;;;;5.73;3.47;;;7.30;99.90;;;;;;5059867;28;20504;-78
2023/05/01 05:02:00;;;;;;;3.80;3.47;;;7.30;99.90;;;;;;5060532;28;20452;-79
2023/05/01 05:04:27;;;;;;;4.23;3.50;;;7.40;99.90;;;;;;5054446;28;21025;-80
2023/05/01 05:06:54;;;;;;;10.03;4.30;;;7.40;99.90;;;;;;5060197;28;20445;-80
2023/05/01 05:09:21;;;;;;;3.50;2.80;;;7.50;99.90;;;;;;5058290;28;20460;-77
2023/05/01 05:11:48;;;;;;;4.27;3.53;;;7.50;99.90;;;;;;5051570;28;20862;-77
2023/05/01 05:14:16;;;;;;;3.97;3.57;;;7.60;99.90;;;;;;5051026;28;20496;-77
2023/05/01 05:16:43;;;;;;;4.60;3.70;;;7.70;99.90;;;;;;5051595;28;21050;-78
2023/05/01 05:19:10;;;;;;;5.80;4.07;;;7.70;99.90;;;;;;5059458;28;20475;-80
2023/05/01 05:21:37;;;;;;;4.20;2.97;;;7.90;99.90;;;;;;5062546;28;20444;-80
2023/05/01 05:24:04;;;;;;;4.10;3.17;;;7.90;99.90;;;;;;5059803;28;20924;-78
2023/05/01 05:26:31;;;;;;;3.00;2.77;;;7.80;99.90;;;;;;5059520;28;20930;-77
2023/05/01 05:28:58;;;;;;;3.77;3.33;;;7.80;99.90;;;;;;5063272;28;20556;-78
2023/05/01 05:31:27;;;;;;;3.43;3.00;;;7.90;99.90;;;;;;5065916;28;20532;-79
2023/05/01 05:33:54;;;;;;;4.93;3.20;;;7.90;99.90;;;;;;5056014;28;20445;-78
2023/05/01 05:36:21;;;;;;;4.60;3.80;;;7.90;99.90;;;;;;5053144;28;20513;-77
2023/05/01 05:38:48;;;;;;;4.17;2.73;;;7.90;99.90;;;;;;5062384;28;20483;-78
2023/05/01 05:41:14;;;;;;;3.33;2.13;;;8.00;99.90;;;;;;5048727;28;20433;-79
2023/05/01 05:43:42;;;;;;;4.80;2.10;;;8.00;99.90;;;;;;5065317;28;20551;-79
2023/05/01 05:46:08;;;;;;;4.37;3.50;;;8.00;99.90;;;;;;5059828;28;20457;-77
2023/05/01 05:48:37;;;;;;;3.47;3.17;;;8.10;99.90;;;;;;5061222;28;20510;-78
2023/05/01 05:51:04;;;;;;;4.10;3.60;;;8.20;99.90;;;;;;5061980;28;20499;-80
2023/05/01 05:53:31;;;;;;;4.60;3.10;;;8.40;99.90;;;;;;5050274;28;20961;-77
2023/05/01 05:55:58;;;;;;;6.80;3.57;;;8.40;99.90;;;;;;5053652;28;20463;-75
2023/05/01 05:58:26;;;;;;;4.70;2.90;;;8.50;99.90;;;;;;5059094;28;20485;-79
2023/05/01 06:00:54;;;;;;;5.03;2.37;;;8.80;99.90;;;;;;5049986;28;20870;-78
2023/05/01 06:03:21;;;;;;;3.77;3.47;;;8.90;99.90;;;;;;5066891;28;20480;-77
2023/05/01 06:05:50;;;;;;;3.90;2.70;;;9.00;99.90;;;;;;5068688;28;20433;-80
2023/05/01 06:08:16;;;;;;;3.47;3.17;;;9.00;99.90;;;;;;5066757;28;20456;-77
2023/05/01 06:10:44;;;;;;;6.97;3.43;;;9.10;99.90;;;;;;5070195;28;20462;-77
2023/05/01 06:13:12;;;;;;;4.17;3.50;;;9.20;99.90;;;;;;5059724;28;21232;-78
2023/05/01 06:15:42;;;;;;;3.80;3.43;;;9.20;99.90;;;;;;5056114;28;21023;-77
2023/05/01 06:18:10;;;;;;;3.10;2.90;;;9.30;99.90;;;;;;5057098;28;20448;-80
2023/05/01 06:20:37;;;;;;;3.70;2.60;;;9.50;99.90;;;;;;5053785;28;20880;-78
2023/05/01 06:23:07;;;;;;;4.10;3.40;;;9.60;99.90;;;;;;5063157;28;20481;-79
2023/05/01 06:25:34;;;;;;;6.80;3.70;;;9.80;99.90;;;;;;5056664;28;20449;-79
2023/05/01 06:28:02;;;;;;;4.87;2.90;;;9.90;99.90;;;;;;5060809;28;20505;-78
2023/05/01 06:30:30;;;;;;;4.87;3.10;;;9.90;99.90;;;;;;5060997;28;20463;-93
2023/05/01 06:32:57;;;;;;;3.63;2.90;;;10.00;99.90;;;;;;5066558;28;20460;-93
2023/05/01 06:35:24;;;;;;;2.63;2.40;;;10.20;99.90;;;;;;5062797;28;20475;-86
2023/05/01 06:37:51;;;;;;;2.47;2.27;;;10.20;99.90;;;;;;5057725;28;21146;-81
2023/05/01 06:40:20;;;;;;;5.43;2.63;;;10.10;99.90;;;;;;5063480;28;21028;-79
2023/05/01 06:42:47;;;;;;;5.80;3.53;;;10.20;99.90;;;;;;5065305;28;20457;-79
2023/05/01 06:45:14;;;;;;;7.40;2.40;;;10.40;99.90;;;;;;5070080;28;20497;-80
2023/05/01 06:47:41;;;;;;;3.03;2.40;;;10.50;99.90;;;;;;5066880;28;20472;-81
2023/05/01 06:50:09;;;;;;;2.90;2.60;;;10.50;99.90;;;;;;5063469;28;21177;-79
2023/05/01 06:52:36;;;;;;;3.80;3.27;;;10.80;99.90;;;;;;5072296;28;20453;-79
2023/05/01 06:55:03;;;;;;;4.67;2.50;;;11.20;99.90;;;;;;5074824;28;20501;-77
2023/05/01 06:57:32;;;;;;;4.17;2.67;;;11.30;99.90;;;;;;5064627;28;20457;-79
2023/05/01 06:59:59;;;;;;;4.50;2.57;;;11.50;99.90;;;;;;5071251;28;20476;-79
2023/05/01 07:02:25;;;;;;;3.33;3.03;;;11.40;99.90;;;;;;5063597;28;20525;-81
2023/05/01 07:04:53;;;;;;;3.40;2.30;;;11.40;99.90;;;;;;5067222;28;20457;-79
2023/05/01 07:07:21;;;;;;;2.67;2.47;;;11.60;99.90;;;;;;5063571;28;20460;-79
2023/05/01 07:09:48;;;;;;;3.43;2.07;;;11.80;99.90;;;;;;5064711;28;20471;-79
2023/05/01 07:12:15;;;;;;;3.30;3.10;;;11.80;99.90;;;;;;5058880;28;20465;-78
2023/05/01 07:14:44;;;;;;;4.97;2.80;;;11.80;99.90;;;;;;5065881;28;20490;-81
2023/05/01 07:17:11;;;;;;;2.80;2.23;;;11.80;99.90;;;;;;5059645;28;21245;-82
2023/05/01 07:19:38;;;;;;;2.63;2.43;;;12.00;99.90;;;;;;5064829;28;20537;-81
2023/05/01 07:22:05;;;;;;;3.97;3.53;;;12.20;99.90;;;;;;5053431;28;20441;-81
2023/05/01 07:24:32;;;;;;;3.77;3.47;;;12.20;99.90;;;;;;5059695;28;20494;-79
2023/05/01 07:27:00;;;;;;;3.57;3.17;;;12.40;99.50;;;;;;5062665;28;20460;-79
2023/05/01 07:29:27;;;;;;;3.73;2.20;;;12.20;99.90;;;;;;5066060;28;20471;-79
2023/05/01 07:31:55;;;;;;;2.87;2.30;;;12.30;99.90;;;;;;5063723;28;20835;-83
2023/05/01 07:34:22;;;;;;;2.83;2.10;;;12.30;99.80;;;;;;5050782;28;20466;-79
2023/05/01 07:36:49;;;;;;;6.47;2.83;;;12.50;99.50;;;;;;5050183;28;20489;-79
2023/05/01 07:39:17;;;;;;;6.43;3.30;;;12.60;99.90;;;;;;5053273;28;20481;-82
2023/05/01 07:41:44;;;;;;;3.40;3.10;;;12.80;99.80;;;;;;5048189;28;20956;-81
2023/05/01 07:44:11;;;;;;;2.67;2.47;;;13.00;99.90;;;;;;5060468;28;20452;-79
2023/05/01 07:46:38;;;;;;;4.73;2.67;;;12.90;98.40;;;;;;5063778;28;20935;-79
2023/05/01 07:49:06;;;;;;;2.30;2.07;;;13.00;97.90;;;;;;5063486;28;20476;-81
2023/05/01 07:51:33;;;;;;;2.60;2.13;;;13.10;99.40;;;;;;5064455;28;20440;-82
2023/05/01 07:54:02;;;;;;;2.90;2.70;;;13.30;99.40;;;;;;5060175;28;20467;-78
2023/05/01 07:56:29;;;;;;;2.60;2.40;;;13.30;97.30;;;;;;5059511;28;20584;-79
2023/05/01 07:58:56;;;;;;;2.70;2.47;;;13.20;97.00;;;;;;5060566;28;20487;-78
2023/05/01 08:01:23;;;;;;;3.10;2.30;;;13.10;95.70;;;;;;5066588;28;20470;-78
2023/05/01 08:03:50;;;;;;;5.33;3.13;;;13.40;98.60;;;;;;5066154;28;20460;-79
2023/05/01 08:06:18;;;;;;;5.50;3.10;;;13.60;98.80;;;;;;5064997;28;20897;-79
2023/05/01 08:08:45;;;;;;;3.43;2.63;;;13.60;96.60;;;;;;5066176;28;20440;-79
2023/05/01 08:11:12;;;;;;;4.03;2.77;;;13.60;96.90;;;;;;5065685;28;20515;-78
2023/05/01 08:13:39;;;;;;;2.93;1.97;;;13.90;97.20;;;;;;5058314;28;20923;-81
2023/05/01 08:16:06;;;;;;;3.07;2.70;;;14.40;97.50;;;;;;5061052;28;20497;-78
2023/05/01 08:18:33;;;;;;;2.77;2.57;;;14.60;96.80;;;;;;5052451;28;20542;-79
2023/05/01 08:21:00;;;;;;;2.83;2.60;;;14.80;97.60;;;;;;5055751;28;20488;-80
2023/05/01 08:23:29;;;;;;;3.10;2.90;;;14.80;95.90;;;;;;5051088;28;20461;-82
2023/05/01 08:25:56;;;;;;;3.90;2.30;;;15.10;96.10;;;;;;5054685;28;20456;-79
2023/05/01 08:28:24;;;;;;;5.43;2.70;;;15.20;97.00;;;;;;5060787;28;20461;-82
2023/05/01 08:30:51;;;;;;;3.00;2.77;;;15.30;97.60;;;;;;5051828;28;20457;-79
2023/05/01 08:33:18;;;;;;;3.60;2.60;;;15.40;96.70;;;;;;5061622;28;20506;-79
2023/05/01 08:35:45;;;;;;;2.47;2.27;;;15.50;96.20;;;;;;5065685;28;20451;-79
2023/05/01 08:38:12;;;;;;;3.47;2.53;;;15.30;94.90;;;;;;5060034;28;20440;-79
2023/05/01 08:40:43;;;;;;;4.70;2.70;;;15.00;94.80;;;;;;5063414;28;20534;-80
2023/05/01 08:43:11;;;;;;;5.20;2.40;;;15.20;95.20;;;;;;5060761;28;20436;-79
2023/05/01 08:45:39;;;;;;;2.97;2.77;;;15.60;96.60;;;;;;5065367;28;20469;-80
2023/05/01 08:48:07;;;;;;;4.90;2.40;;;15.80;94.60;;;;;;5067262;28;20476;-82
2023/05/01 08:50:36;;;;;;;3.37;3.07;;;15.80;94.90;;;;;;5067157;28;20440;-79
2023/05/01 08:53:04;;;;;;;2.47;2.27;;;15.60;93.70;;;;;;5060767;28;20464;-79
2023/05/01 08:55:32;;;;;;;4.70;2.20;;;15.40;94.80;;;;;;5062007;28;20452;-79
2023/05/01 08:58:03;;;;;;;3.53;2.97;;;15.50;96.10;;;;;;5062629;28;20548;-79
2023/05/01 09:00:33;;;;;;;3.43;2.33;;;15.60;94.70;;;;;;5060028;28;21395;-79
2023/05/01 09:03:02;;;;;;;6.23;3.40;;;15.80;95.00;;;;;;5065120;28;21028;-79
2023/05/01 09:05:31;;;;;;;2.80;2.37;;;15.90;95.10;;;;;;5057970;28;20527;-79
2023/05/01 09:07:59;;;;;;;2.30;2.10;;;16.20;96.30;;;;;;5067714;28;20444;-78
2023/05/01 09:10:27;;;;;;;3.00;2.47;;;16.30;92.80;;;;;;5062985;28;20511;-78
2023/05/01 09:12:57;;;;;;;4.20;2.67;;;16.50;94.70;;;;;;5068657;28;20510;-82
2023/05/01 09:15:26;;;;;;;3.00;2.80;;;16.50;93.90;;;;;;5063456;28;20446;-81
2023/05/01 09:17:54;;;;;;;4.03;2.50;;;16.40;93.20;;;;;;5058566;28;20444;-83
2023/05/01 09:20:22;;;;;;;2.20;2.00;;;16.40;93.60;;;;;;5062879;28;20894;-78
2023/05/01 09:22:50;;;;;;;4.00;2.50;;;16.50;94.40;;;;;;5058068;28;20504;-82
2023/05/01 09:25:18;;;;;;;2.47;2.27;;;16.70;94.20;;;;;;5056962;28;20445;-80
2023/05/01 09:27:45;;;;;;;4.53;2.60;;;16.60;93.60;;;;;;5063782;28;20453;-78
2023/05/01 09:30:32;;;;;;;3.60;3.27;;;16.60;92.30;;;;;;5062579;28;20460;-80
2023/05/01 09:33:09;;;;;;;3.70;2.47;;;16.70;91.90;;;;;;5055271;28;20445;-80
2023/05/01 09:35:51;;;;;;;3.60;2.57;;;16.80;93.60;;;;;;5061663;28;20446;-78
2023/05/01 09:38:20;;;;;;;2.90;2.70;;;17.30;94.20;;;;;;5062561;28;21223;-80
2023/05/01 09:40:47;;;;;;;2.80;2.60;;;17.50;94.10;;;;;;5061868;28;20518;-79
2023/05/01 09:43:15;;;;;;;4.23;2.83;;;17.50;93.60;;;;;;5064722;28;20464;-79
2023/05/01 09:46:00;;;;;;;2.40;2.23;;;17.50;93.50;;;;;;5066608;28;20450;-79
2023/05/01 09:48:28;;;;;;;3.80;2.37;;;17.70;93.50;;;;;;5059308;28;20486;-79
2023/05/01 09:50:54;;;;;;;3.07;2.40;;;18.00;91.80;;;;;;5065745;28;20465;-79
2023/05/01 09:53:36;;;;;;;2.40;2.03;;;18.00;91.30;;;;;;5068544;28;20535;-79
2023/05/01 09:56:04;;;;;;;1.93;1.83;;;18.10;88.20;;;;;;5066264;28;20450;-80
2023/05/01 09:58:31;;;;;;;2.90;2.37;;;17.90;90.60;;;;;;5072946;28;20458;-79
2023/05/01 10:00:59;;;;;;;2.93;2.40;;;18.00;92.00;;;;;;5075959;28;20485;-79
2023/05/01 10:03:26;;;;;;;6.47;2.93;;;18.00;90.80;;;;;;5079546;28;20461;-79
2023/05/01 10:05:55;;;;;;;4.73;2.57;;;17.90;88.70;;;;;;5076064;28;20495;-79
2023/05/01 10:08:23;;;;;;;3.00;2.67;;;18.00;91.60;;;;;;5082857;28;20453;-79
2023/05/01 10:11:01;;;;;;;3.20;2.33;;;17.80;87.20;;;;;;5075601;28;20476;-81
2023/05/01 10:13:28;;;;;;;3.90;2.83;;;17.60;90.00;;;;;;5067645;28;20482;-79
2023/05/01 10:15:55;;;;;;;3.30;2.60;;;17.80;90.70;;;;;;5065266;28;20450;-80
2023/05/01 10:18:24;;;;;;;2.27;2.17;;;17.90;89.70;;;;;;5068385;28;20504;-79
2023/05/01 10:20:52;;;;;;;3.87;3.40;;;17.70;88.40;;;;;;5068588;28;20531;-78
2023/05/01 10:23:19;;;;;;;3.20;2.90;;;17.80;91.10;;;;;;5056092;28;20466;-82
2023/05/01 10:25:51;;;;;;;4.33;2.87;;;17.90;91.50;;;;;;5061520;28;20519;-79
2023/05/01 10:28:19;;;;;;;2.90;2.60;;;17.70;91.00;;;;;;5062161;28;20791;-79
2023/05/01 10:30:48;;;;;;;2.93;2.53;;;17.70;91.10;;;;;;5066970;28;20473;-79
2023/05/01 10:33:15;;;;;;;4.07;2.87;;;17.70;91.00;;;;;;5058903;28;21013;-79
2023/05/01 10:35:49;;;;;;;2.40;2.20;;;17.80;91.20;;;;;;5065504;28;20503;-79
2023/05/01 10:38:23;;;;;;;1.77;1.67;;;17.70;90.70;;;;;;5063044;28;20438;-81
2023/05/01 10:40:50;;;;;;;3.63;2.53;;;18.00;90.40;;;;;;5066309;28;20468;-79
2023/05/01 10:43:24;;;;;;;2.63;2.40;;;18.20;90.20;;;;;;5057543;28;20452;-78
2023/05/01 10:45:51;;;;;;;2.60;2.40;;;18.60;93.50;;;;;;5049952;28;20464;-79
2023/05/01 10:48:53;;;;;;;2.37;2.27;;;19.10;90.20;;;;;;5063315;28;20499;-78
2023/05/01 10:51:23;;;;;;;2.00;1.90;;;19.30;91.60;;;;;;5063419;28;20513;-82
2023/05/01 10:54:27;;;;;;;3.53;2.93;;;19.50;90.70;;;;;;5051864;28;20451;-79
2023/05/01 10:56:57;;;;;;;2.23;2.03;;;19.10;86.70;;;;;;5059846;28;20489;-79
2023/05/01 10:59:24;;;;;;;2.80;2.30;;;18.90;88.10;;;;;;5065378;28;20440;-79
2023/05/01 11:01:52;;;;;;;2.60;2.40;;;18.90;87.90;;;;;;5064411;28;20562;-79
2023/05/01 11:04:49;;;;;;;2.43;2.23;;;18.90;85.60;;;;;;5051190;28;20529;-79
2023/05/01 11:07:22;;;;;;;5.90;2.27;;;19.30;87.90;;;;;;5052050;28;20453;-78
2023/05/01 11:09:53;;;;;;;2.47;2.27;;;19.60;84.50;;;;;;5046928;28;20547;-79
2023/05/01 11:12:49;;;;;;;2.20;1.80;;;19.80;79.50;;;;;;5057486;28;20930;-79
2023/05/01 11:15:27;;;;;;;2.70;1.80;;;19.70;83.70;;;;;;5056087;28;20460;-82
2023/05/01 11:17:54;;;;;;;1.93;1.83;;;19.50;84.00;;;;;;5054553;28;20444;-80
2023/05/01 11:20:49;;;;;;;2.50;1.67;;;19.50;85.80;;;;;;5065548;28;20475;-77
2023/05/01 11:23:22;;;;;;;2.63;2.23;;;19.50;81.90;;;;;;5053820;28;20472;-79
2023/05/01 11:25:52;;;;;;;3.13;1.90;;;19.70;83.10;;;;;;5056285;28;20906;-79
2023/05/01 11:28:21;;;;;;;2.53;1.57;;;20.40;83.30;;;;;;5056460;28;20933;-79
2023/05/01 11:30:48;;;;;;;3.30;2.10;;;20.40;81.90;;;;;;5057074;28;20524;-78
2023/05/01 11:33:24;;;;;;;1.87;1.63;;;20.10;79.40;;;;;;5061092;28;21378;-78
2023/05/01 11:36:02;;;;;;;2.73;2.53;;;20.30;80.80;;;;;;5062301;28;20452;-79
2023/05/01 11:38:30;;;;;;;2.00;1.50;;;20.60;81.30;;;;;;5063232;28;20447;-78
2023/05/01 11:41:03;;;;;;;1.87;1.57;;;20.90;77.40;;;;;;5060755;28;20482;-79
2023/05/01 11:43:30;;;;;;;1.43;1.30;;;21.10;75.20;;;;;;5062627;28;20464;-79
2023/05/01 11:46:02;;;;;;;1.37;1.27;;;21.00;75.50;;;;;;5061159;28;20444;-79
2023/05/01 11:48:30;;;;;;;2.03;1.83;;;21.20;72.80;;;;;;5062835;28;21089;-79
2023/05/01 11:50:57;;;;;;;1.33;1.23;;;20.80;76.00;;;;;;5062461;28;20441;-79
2023/05/01 11:53:24;;;;;;;1.43;1.33;;;20.80;69.90;;;;;;5063446;28;21063;-78
2023/05/01 11:55:52;;;;;;;1.77;1.00;;;20.40;69.10;;;;;;5056617;28;20461;-81
2023/05/01 11:58:35;;;;;;;1.43;1.33;;;20.00;67.00;;;;;;5063480;28;20440;-81
2023/05/01 12:01:02;;;;;;;2.33;1.40;;;20.00;64.00;;;;;;5060345;28;20480;-79
2023/05/01 12:03:40;;;;;;;1.10;1.00;;;20.00;67.30;;;;;;5065012;28;20539;-78
2023/05/01 12:06:07;;;;;;;1.30;1.10;;;20.40;69.00;;;;;;5054130;28;20456;-79
2023/05/01 12:08:34;;;;;;;1.63;1.53;;;20.30;63.60;;;;;;5063696;28;20494;-80
2023/05/01 12:11:03;;;;;;;2.40;0.90;;;20.40;66.70;;;;;;5061767;28;21075;-81
2023/05/01 12:13:30;;;;;;;1.47;1.37;;;20.20;65.60;;;;;;5066344;28;21244;-78
2023/05/01 12:16:00;;;;;;;6.23;1.50;;;20.40;71.70;;;;;;5069530;28;20512;-78
2023/05/01 12:18:27;;;;;;;1.93;1.00;;;20.60;64.90;;;;;;5061403;28;20457;-79
2023/05/01 12:20:55;;;;;;;1.33;1.13;;;20.40;65.70;;;;;;5068069;28;20521;-78
2023/05/01 12:23:31;;;;;;;2.93;1.13;;;20.40;66.20;;;;;;5069746;28;20585;-77
2023/05/01 12:25:58;;;;;;;1.87;1.70;;;20.70;66.50;;;;;;5061074;28;20457;-79
2023/05/01 12:28:27;;;;;;;2.87;1.53;;;21.00;71.60;;;;;;5062498;28;20440;-81
2023/05/01 12:31:01;;;;;;;3.50;1.80;;;21.10;71.20;;;;;;5065907;28;20514;-79
2023/05/01 12:33:29;;;;;;;4.10;1.73;;;20.90;69.00;;;;;;5061287;28;20436;-81
2023/05/01 12:36:08;;;;;;;1.20;1.10;;;21.50;75.20;;;;;;5063525;28;20524;-78
2023/05/01 12:38:35;;;;;;;1.80;1.67;;;21.00;66.60;;;;;;5064421;28;20455;-82
2023/05/01 12:41:05;;;;;;;1.70;1.60;;;21.30;72.70;;;;;;5065576;28;20575;-79
2023/05/01 12:43:35;;;;;;;1.80;1.30;;;21.50;66.60;;;;;;5056829;28;20441;-82
2023/05/01 12:46:04;;;;;;;1.87;1.27;;;21.50;60.70;;;;;;5065762;28;20440;-77
2023/05/01 12:48:31;;;;;;;5.50;1.97;;;21.40;64.80;;;;;;5061545;28;20521;-79
2023/05/01 12:51:00;;;;;;;1.03;1.03;;;21.80;73.20;;;;;;5069123;28;20444;-78
2023/05/01 12:53:28;;;;;;;0.97;0.87;;;22.20;60.30;;;;;;5065465;28;21192;-79
2023/05/01 12:55:57;;;;;;;4.90;0.87;;;22.30;60.70;;;;;;5062742;28;21005;-79
2023/05/01 12:58:25;;;;;;;1.00;0.90;;;22.40;57.80;;;;;;5066982;28;20512;-82
2023/05/01 13:00:55;;;;;;;0.50;0.50;;;22.40;50.40;;;;;;5059280;28;21233;-79
2023/05/01 13:03:26;;;;;;;0.80;0.80;;;22.50;48.50;;;;;;5070060;28;21312;-80